Portada
METAR-TAF:

METAR-TAF

Aeroports :

Macaé, Rio de Janeiro, Brasil

latitud: 22-21S, longitud: 041-46W, altitud: 2 m

Observació

L'informe es va fer fa 1 hora i 21 minuts, a les 23:00 UTC
Vent 10 kt del Sud/Sud-Oest
Temperatura 18°C
Humitat 73%
Pressió 1019 hPa
Visibilitat 10 km o més
sense núvols per sota de 1500 mi sense presència de cumulonimbus.

METAR: SBME 162300Z 21010KT CAVOK 18/13 Q1019

Hora: 21:21 (00:21 UTC)

Pronòstic

L'informe es va fer fa 7 hores i 51 minuts, a les 16:30 UTC
Pronòstic vàlid del 16 a les 18 UTC al 17 a les 06 UTC
Vent 15 kt del Sud/Sud-Oest
Visibilitat: 7000 m
Núvols disperses a una alçada de 2300 ft
Temporalment
l' 16 a les 19 UTC al 16 a les 23 UTC
Vent 15 kt del Sud-Oest amb ràfegues de 25 kt
Evolucionant progressivament
l' 17 a les 00 UTC al 17 a les 03 UTC
Vent 10 kt del Oest/Sud-Oest

TAF: SBME 161630Z 1618/1706 21015KT 7000 SCT023 TX25/1618Z TN17/1706Z TEMPO 1619/1623 22015G25KT BECMG 1700/1703 24010KT RMK PHC

Observacions i pronòstics meteorològics de més de 4000 aeroports (METAR i TAF).

Les estacions disponibles són els punts grocs i vermells al mapa.

Posi el ratolí al punt desitjat per veure el nom de l'estació.

Feu clic per veure les observacions i els pronòstics meteorològics.

Per canviar el mapa: feu clic els botons verds amb una creu de color negre per apropar; al botó verd amb un guió per allunyar la imatge; o en les fletxes verdes per a mapes adjacents.


METAR-TAF: